CheckWX is a tool to help pilots better visualize weather data.  It is not intended as a substitute for an official pre-flight weather briefing.

06:10:39 UTC

KOZR METAR
Cairns AAF (Fort Rucker) Airport
Fort Rucker/Ozark, Alabama, USA
Current

15 mins ago

KOZR 230556Z AUTO 00000KT 10SM CLR 13/10 A3014 RMK AO2 SLP207 T01290099 10246 20129 402820076 50000 $
Observed
Apr-23 @ 05:56 UTC
Visibility
10 SM
Flight Rules
VFR
Cloud Levels
  • Clear skies
Temperature
13°C / 55°F
Dewpoint
10°C / 50°F
Humidity
82%
Altimeter
30.14" Hg
Pressure
1020.62 hPa
Previous

1 hour ago

KOZR 230456Z AUTO 00000KT 10SM CLR 16/10 A3014 RMK AO2 SLP207 T01560099 $
Observed
Apr-23 @ 04:56 UTC
Visibility
10 SM
Flight Rules
VFR
Cloud Levels
  • Clear skies
Temperature
16°C / 61°F
Dewpoint
10°C / 50°F
Humidity
68%
Altimeter
30.14" Hg
Pressure
1020.62 hPa
Previous

2 hours ago

KOZR 230356Z AUTO 21003KT 10SM CLR 16/11 A3015 RMK AO2 SLP210 T01580114 $
Observed
Apr-23 @ 03:56 UTC
Wind
  • 210° at 3 KTS
Visibility
10 SM
Flight Rules
VFR
Cloud Levels
  • Clear skies
Temperature
16°C / 61°F
Dewpoint
11°C / 52°F
Humidity
72%
Altimeter
30.15" Hg
Pressure
1021.02 hPa